createdAt,value
2022-11-07T00:01:18.400Z,6.40
2022-11-07T00:03:45.425Z,6.40
2022-11-07T00:06:12.507Z,6.40
2022-11-07T00:08:39.673Z,6.40
2022-11-07T00:11:06.953Z,6.50
2022-11-07T00:13:34.199Z,6.50
2022-11-07T00:16:01.931Z,6.50
2022-11-07T00:18:29.123Z,6.50
2022-11-07T00:20:56.142Z,6.50
2022-11-07T00:23:23.133Z,6.50
2022-11-07T00:25:50.068Z,6.50
2022-11-07T00:28:17.033Z,6.60
2022-11-07T00:30:44.117Z,6.60
2022-11-07T00:33:11.105Z,6.60
2022-11-07T00:35:42.056Z,6.60
2022-11-07T00:38:09.149Z,6.60
2022-11-07T00:40:36.231Z,6.50
2022-11-07T00:43:03.817Z,6.50
2022-11-07T00:45:30.760Z,6.50
2022-11-07T00:47:57.827Z,6.50
2022-11-07T00:50:24.738Z,6.50
2022-11-07T00:52:51.914Z,6.50
2022-11-07T00:55:18.872Z,6.40
2022-11-07T00:57:45.877Z,6.40
2022-11-07T01:00:13.150Z,6.40
2022-11-07T01:02:40.203Z,6.40
2022-11-07T01:05:11.535Z,6.30
2022-11-07T01:07:39.740Z,6.30
2022-11-07T01:10:07.197Z,6.30
2022-11-07T01:12:35.153Z,6.30
2022-11-07T01:15:03.339Z,6.30
2022-11-07T01:17:30.429Z,6.30
2022-11-07T01:19:57.447Z,6.30
2022-11-07T01:22:24.395Z,6.30
2022-11-07T01:24:51.484Z,6.30
2022-11-07T01:27:18.434Z,6.30
2022-11-07T01:29:45.383Z,6.30
2022-11-07T01:32:12.398Z,6.40
2022-11-07T01:34:39.355Z,6.40
2022-11-07T01:37:07.331Z,6.40
2022-11-07T01:39:34.770Z,6.40
2022-11-07T01:42:01.888Z,6.40
2022-11-07T01:44:29.247Z,6.30
2022-11-07T01:46:57.395Z,6.30
2022-11-07T01:49:29.090Z,6.30
2022-11-07T01:52:03.025Z,6.20
2022-11-07T01:54:36.827Z,6.20
2022-11-07T01:57:09.900Z,6.20
2022-11-07T01:59:40.551Z,6.30
2022-11-07T02:02:09.094Z,6.30
2022-11-07T02:04:40.227Z,6.30
2022-11-07T02:07:16.425Z,6.30
2022-11-07T02:09:45.966Z,6.30
2022-11-07T02:12:15.792Z,6.30
2022-11-07T02:14:44.892Z,6.20
2022-11-07T02:17:13.954Z,6.30
2022-11-07T02:19:48.705Z,6.30
2022-11-07T02:22:34.029Z,6.30
2022-11-07T02:25:03.328Z,6.20
2022-11-07T02:27:32.203Z,6.20
2022-11-07T02:30:02.030Z,6.20
2022-11-07T02:32:29.450Z,6.20
2022-11-07T02:34:59.839Z,6.20
2022-11-07T02:37:35.229Z,6.20
2022-11-07T02:40:03.757Z,6.20
2022-11-07T02:42:43.561Z,6.20
2022-11-07T02:45:12.245Z,6.20
2022-11-07T02:47:39.405Z,6.20
2022-11-07T02:50:10.605Z,6.20
2022-11-07T02:52:37.658Z,6.20
2022-11-07T02:55:05.490Z,6.10
2022-11-07T02:57:32.559Z,6.10
2022-11-07T02:59:59.508Z,6.10
2022-11-07T03:02:27.007Z,6.10
2022-11-07T03:04:54.025Z,6.10
2022-11-07T03:07:21.126Z,6.10
2022-11-07T03:09:48.097Z,6.10
2022-11-07T03:12:15.184Z,6.10
2022-11-07T03:14:42.211Z,6.10
2022-11-07T03:17:09.354Z,6.10
2022-11-07T03:19:36.367Z,6.00
2022-11-07T03:22:03.756Z,6.00
2022-11-07T03:24:32.587Z,6.00
2022-11-07T03:26:59.603Z,5.90
2022-11-07T03:29:26.887Z,5.80
2022-11-07T03:31:53.826Z,5.90
2022-11-07T03:34:20.867Z,5.90
2022-11-07T03:36:48.047Z,5.90
2022-11-07T03:39:15.190Z,5.80
2022-11-07T03:41:42.215Z,5.80
2022-11-07T03:44:09.293Z,5.80
2022-11-07T03:46:36.253Z,5.80
2022-11-07T03:49:03.306Z,5.80
2022-11-07T03:51:30.243Z,5.80
2022-11-07T03:53:57.206Z,5.70
2022-11-07T03:56:24.283Z,5.70
2022-11-07T03:58:51.236Z,5.70
2022-11-07T04:01:18.265Z,5.70
2022-11-07T04:03:45.208Z,5.60
2022-11-07T04:06:12.309Z,5.60
2022-11-07T04:08:39.215Z,5.60
2022-11-07T04:11:06.333Z,5.60
2022-11-07T04:13:52.086Z,5.60
2022-11-07T04:16:38.238Z,5.50
2022-11-07T04:19:05.500Z,5.50
2022-11-07T04:21:32.485Z,5.50
2022-11-07T04:23:59.447Z,5.50
2022-11-07T04:26:45.200Z,5.50
2022-11-07T04:29:12.357Z,5.50
2022-11-07T04:31:39.343Z,5.50
2022-11-07T04:34:06.362Z,5.50
2022-11-07T04:36:33.478Z,5.50
2022-11-07T04:39:00.601Z,5.50
2022-11-07T04:41:27.658Z,5.50
2022-11-07T04:43:54.657Z,5.50
2022-11-07T04:46:23.327Z,5.50
2022-11-07T04:48:50.469Z,5.50
2022-11-07T04:51:19.498Z,5.60
2022-11-07T04:53:46.466Z,5.60
2022-11-07T04:56:13.405Z,5.60
2022-11-07T04:58:40.466Z,5.60
2022-11-07T05:01:07.404Z,5.60
2022-11-07T05:03:40.409Z,5.60
2022-11-07T05:06:10.050Z,5.60
2022-11-07T05:08:37.009Z,5.60
2022-11-07T05:11:04.099Z,5.50
2022-11-07T05:13:31.010Z,5.60
2022-11-07T05:15:58.182Z,5.50
2022-11-07T05:18:25.529Z,5.50
2022-11-07T05:20:52.625Z,5.50
2022-11-07T05:23:20.281Z,5.50
2022-11-07T05:25:47.631Z,5.60
2022-11-07T05:28:29.910Z,5.60
2022-11-07T05:31:00.280Z,5.60
2022-11-07T05:33:27.622Z,5.60
2022-11-07T05:35:54.632Z,5.60
2022-11-07T05:38:21.841Z,5.60
2022-11-07T05:40:48.804Z,5.60
2022-11-07T05:43:16.199Z,5.60
2022-11-07T05:45:43.477Z,5.70
2022-11-07T05:48:11.678Z,5.60
2022-11-07T05:50:39.211Z,5.70
2022-11-07T05:53:06.615Z,5.70
2022-11-07T05:55:34.029Z,5.70
2022-11-07T05:58:06.869Z,5.70
2022-11-07T06:00:35.780Z,5.70
2022-11-07T06:03:02.988Z,5.70
2022-11-07T06:05:30.200Z,5.70
2022-11-07T06:07:57.707Z,5.80
2022-11-07T06:10:25.357Z,5.80
2022-11-07T06:13:03.030Z,5.80
2022-11-07T06:15:31.790Z,5.80
2022-11-07T06:18:02.609Z,5.80
2022-11-07T06:20:29.750Z,5.80
2022-11-07T06:22:57.878Z,5.80
2022-11-07T06:25:25.067Z,5.80
2022-11-07T06:27:52.799Z,5.80
2022-11-07T06:30:19.936Z,5.80
2022-11-07T06:32:47.193Z,5.80
2022-11-07T06:35:14.166Z,5.90
2022-11-07T06:37:42.257Z,5.80
2022-11-07T06:40:09.699Z,5.90
2022-11-07T06:42:37.126Z,5.90
2022-11-07T06:45:04.255Z,5.90
2022-11-07T06:47:31.355Z,5.90
2022-11-07T06:50:00.604Z,5.80
2022-11-07T06:52:28.197Z,5.90
2022-11-07T06:55:25.813Z,5.80
2022-11-07T06:57:52.894Z,5.80
2022-11-07T07:00:20.070Z,5.90
2022-11-07T07:02:58.605Z,6.00
2022-11-07T07:05:26.563Z,6.00
2022-11-07T07:07:54.320Z,6.00
2022-11-07T07:10:21.447Z,6.00
2022-11-07T07:12:48.689Z,6.00
2022-11-07T07:15:15.574Z,6.00
2022-11-07T07:17:42.516Z,6.00
2022-11-07T07:20:09.923Z,6.10
2022-11-07T07:22:36.911Z,6.10
2022-11-07T07:25:03.885Z,6.10
2022-11-07T07:27:31.051Z,6.10
2022-11-07T07:29:58.017Z,6.10
2022-11-07T07:32:25.353Z,6.20
2022-11-07T07:34:52.452Z,6.30
2022-11-07T07:37:19.400Z,6.30
2022-11-07T07:39:46.284Z,6.30
2022-11-07T07:42:13.370Z,6.30
2022-11-07T07:44:44.631Z,6.30
2022-11-07T07:47:11.810Z,6.30
2022-11-07T07:49:39.078Z,6.20
2022-11-07T07:52:06.388Z,6.20
2022-11-07T07:54:33.338Z,6.20
2022-11-07T07:57:01.608Z,6.20
2022-11-07T07:59:28.588Z,6.20
2022-11-07T08:01:57.395Z,6.20
2022-11-07T08:04:24.599Z,6.10
2022-11-07T08:06:51.658Z,6.10
2022-11-07T08:09:18.646Z,6.10
2022-11-07T08:11:45.567Z,6.20
2022-11-07T08:14:13.116Z,6.20
2022-11-07T08:16:40.061Z,6.30
2022-11-07T08:19:07.208Z,6.40
2022-11-07T08:21:34.148Z,6.40
2022-11-07T08:24:03.525Z,6.30
2022-11-07T08:26:31.544Z,6.40
2022-11-07T08:28:58.594Z,6.40
2022-11-07T08:31:25.531Z,6.40
2022-11-07T08:33:52.644Z,6.40
2022-11-07T08:36:19.859Z,6.40
2022-11-07T08:38:46.799Z,6.40
2022-11-07T08:41:16.238Z,6.40
2022-11-07T08:43:47.637Z,6.50
2022-11-07T08:46:14.582Z,6.50
2022-11-07T08:48:41.624Z,6.50
2022-11-07T08:51:10.813Z,6.50
2022-11-07T08:53:38.063Z,6.50
2022-11-07T08:56:06.378Z,6.50
2022-11-07T08:58:33.873Z,6.40
2022-11-07T09:01:01.115Z,6.40
2022-11-07T09:03:45.151Z,6.50
2022-11-07T09:06:22.924Z,6.50
2022-11-07T09:08:50.024Z,6.50
2022-11-07T09:11:19.330Z,6.50
2022-11-07T09:13:49.069Z,6.60
2022-11-07T09:16:19.240Z,6.70
2022-11-07T09:18:47.235Z,6.70
2022-11-07T09:21:19.069Z,6.60
2022-11-07T09:23:49.104Z,6.60
2022-11-07T09:26:16.143Z,6.70
2022-11-07T09:28:48.337Z,6.80
2022-11-07T09:31:18.167Z,6.80
2022-11-07T09:33:45.049Z,6.80
2022-11-07T09:36:13.199Z,6.90
2022-11-07T09:38:40.349Z,7.00
2022-11-07T09:41:08.117Z,7.10
2022-11-07T09:43:43.907Z,7.30
2022-11-07T09:46:11.020Z,7.40
2022-11-07T09:48:45.573Z,7.20
2022-11-07T09:51:18.644Z,7.10
2022-11-07T09:53:47.716Z,7.30
2022-11-07T09:56:15.004Z,7.40
2022-11-07T09:58:47.051Z,7.30
2022-11-07T10:01:16.032Z,7.30
2022-11-07T10:04:17.712Z,7.50
2022-11-07T10:06:35.867Z,7.40
2022-11-07T10:09:16.756Z,7.40
2022-11-07T10:11:58.440Z,7.20
2022-11-07T10:14:34.913Z,7.10
2022-11-07T10:17:01.983Z,7.00
2022-11-07T10:19:34.776Z,7.00
2022-11-07T10:22:14.749Z,7.10
2022-11-07T10:24:46.520Z,7.10
2022-11-07T10:27:17.142Z,7.10
2022-11-07T10:29:48.034Z,6.90
2022-11-07T10:32:18.898Z,6.80
2022-11-07T10:34:55.355Z,6.80
2022-11-07T10:37:22.402Z,6.80
2022-11-07T10:39:49.500Z,6.80
2022-11-07T10:42:18.603Z,6.80
2022-11-07T10:44:46.207Z,6.90
2022-11-07T10:47:20.729Z,6.90
2022-11-07T10:49:57.804Z,6.80
2022-11-07T10:52:25.309Z,6.70
2022-11-07T10:54:52.607Z,6.70
2022-11-07T10:57:20.726Z,6.60
2022-11-07T10:59:58.078Z,6.60
2022-11-07T11:02:39.895Z,6.60
2022-11-07T11:05:20.041Z,6.60
2022-11-07T11:07:47.086Z,6.60
2022-11-07T11:10:21.850Z,6.60
2022-11-07T11:12:49.469Z,6.50
2022-11-07T11:15:18.030Z,6.40
2022-11-07T11:17:45.487Z,6.40
2022-11-07T11:20:38.951Z,6.50
2022-11-07T11:23:13.347Z,6.50
2022-11-07T11:25:44.769Z,6.50
2022-11-07T11:28:15.768Z,6.50
2022-11-07T11:30:44.005Z,6.60
2022-11-07T11:33:19.846Z,6.60
2022-11-07T11:35:53.740Z,6.50
2022-11-07T11:38:38.207Z,6.60
2022-11-07T11:41:23.425Z,6.60
2022-11-07T11:44:09.153Z,6.60
2022-11-07T11:46:41.140Z,6.60
2022-11-07T11:49:19.689Z,6.60
2022-11-07T11:51:50.492Z,6.60
2022-11-07T11:54:17.586Z,6.60
2022-11-07T11:56:52.927Z,6.60
2022-11-07T11:59:20.266Z,6.50
2022-11-07T12:02:20.054Z,6.40
2022-11-07T12:04:50.066Z,6.50
2022-11-07T12:07:28.950Z,6.50
2022-11-07T12:09:59.919Z,6.50
2022-11-07T12:12:37.288Z,6.60
2022-11-07T12:15:13.091Z,6.60
2022-11-07T12:17:55.529Z,6.70
2022-11-07T12:20:26.795Z,6.70
2022-11-07T12:22:56.897Z,6.70
2022-11-07T12:25:28.576Z,6.70
2022-11-07T12:28:07.915Z,6.80
2022-11-07T12:30:53.388Z,6.80
2022-11-07T12:33:39.234Z,6.90
2022-11-07T12:36:21.902Z,6.90
2022-11-07T12:39:04.071Z,7.00
2022-11-07T12:41:49.594Z,7.00
2022-11-07T12:44:38.100Z,7.00
2022-11-07T12:47:13.769Z,7.00
2022-11-07T12:49:47.328Z,7.00
2022-11-07T12:52:33.152Z,7.00
2022-11-07T12:55:12.840Z,7.00
2022-11-07T12:57:41.152Z,7.10
2022-11-07T13:00:17.430Z,7.00
2022-11-07T13:02:55.571Z,7.10
2022-11-07T13:05:36.504Z,7.00
2022-11-07T13:08:14.649Z,7.00
2022-11-07T13:10:49.325Z,7.00
2022-11-07T13:13:21.483Z,6.90
2022-11-07T13:16:14.083Z,7.00
2022-11-07T13:18:35.779Z,7.00
2022-11-07T13:21:04.200Z,7.00
2022-11-07T13:23:31.461Z,7.00
2022-11-07T13:25:59.721Z,7.10
2022-11-07T13:28:36.063Z,7.10
2022-11-07T13:31:07.792Z,7.10
2022-11-07T13:33:35.969Z,7.10
2022-11-07T13:36:13.848Z,7.10
2022-11-07T13:38:51.303Z,7.10
2022-11-07T13:41:18.952Z,7.10
2022-11-07T13:43:45.798Z,7.00
2022-11-07T13:46:19.239Z,7.00
2022-11-07T13:48:51.356Z,6.90
2022-11-07T13:51:18.409Z,6.90
2022-11-07T13:54:03.999Z,6.90
2022-11-07T13:56:42.179Z,6.90
2022-11-07T13:59:22.955Z,6.90
2022-11-07T14:01:54.448Z,6.80
2022-11-07T14:04:21.692Z,6.80
2022-11-07T14:06:49.713Z,6.90
2022-11-07T14:09:18.911Z,6.90
2022-11-07T14:11:46.800Z,6.80
2022-11-07T14:14:13.821Z,6.80
2022-11-07T14:16:44.452Z,6.80
2022-11-07T14:19:16.431Z,6.80
2022-11-07T14:21:47.121Z,6.80
2022-11-07T14:24:21.894Z,6.80
2022-11-07T14:26:59.677Z,6.80
2022-11-07T14:29:26.916Z,6.80
2022-11-07T14:31:57.442Z,6.80
2022-11-07T14:34:25.053Z,6.80
2022-11-07T14:36:53.762Z,6.80
2022-11-07T14:39:21.412Z,6.80
2022-11-07T14:41:48.751Z,6.80
2022-11-07T14:47:28.309Z,6.80
2022-11-07T14:49:55.741Z,6.80
2022-11-07T14:52:28.692Z,6.70
2022-11-07T14:55:00.029Z,6.70
2022-11-07T14:57:27.088Z,6.80
2022-11-07T14:59:54.466Z,6.80
2022-11-07T15:02:21.564Z,6.70
2022-11-07T15:04:48.694Z,6.70
2022-11-07T15:07:18.495Z,6.80
2022-11-07T15:09:45.849Z,6.80
2022-11-07T15:12:18.020Z,6.70
2022-11-07T15:14:45.349Z,6.70
2022-11-07T15:17:22.755Z,6.70
2022-11-07T15:20:00.657Z,6.80
2022-11-07T15:22:38.079Z,6.80
2022-11-07T15:25:24.052Z,6.80
2022-11-07T15:27:51.126Z,6.80
2022-11-07T15:30:30.044Z,6.80
2022-11-07T15:32:57.221Z,6.80
2022-11-07T15:38:16.601Z,6.90
2022-11-07T15:40:43.886Z,6.90
2022-11-07T15:43:10.762Z,6.90
2022-11-07T15:45:37.961Z,6.90
2022-11-07T15:48:05.961Z,6.90
2022-11-07T15:50:33.340Z,6.90
2022-11-07T15:53:00.250Z,6.90
2022-11-07T15:55:27.200Z,6.90
2022-11-07T15:57:54.561Z,6.90
2022-11-07T16:00:25.161Z,6.90
2022-11-07T16:02:52.643Z,6.90
2022-11-07T16:05:19.674Z,6.90
2022-11-07T16:07:47.175Z,6.90
2022-11-07T16:10:17.240Z,6.90
2022-11-07T16:12:44.236Z,6.90
2022-11-07T16:15:14.950Z,6.90
2022-11-07T16:17:42.144Z,7.00
2022-11-07T16:20:23.006Z,6.90
2022-11-07T16:22:50.603Z,7.00
2022-11-07T16:25:22.163Z,7.00
2022-11-07T16:27:50.970Z,7.00
2022-11-07T16:30:18.619Z,7.00
2022-11-07T16:32:45.743Z,6.90
2022-11-07T16:35:12.764Z,7.00
2022-11-07T16:37:39.765Z,6.90
2022-11-07T16:40:08.634Z,6.90
2022-11-07T16:42:35.841Z,6.90
2022-11-07T16:45:02.901Z,6.90
2022-11-07T16:47:31.641Z,7.00
2022-11-07T16:49:58.598Z,7.00
2022-11-07T16:52:28.176Z,7.00
2022-11-07T16:54:55.186Z,7.00
2022-11-07T16:57:23.712Z,7.00
2022-11-07T16:59:52.451Z,7.00
2022-11-07T17:02:22.028Z,7.00
2022-11-07T17:04:53.568Z,7.00
2022-11-07T17:07:24.167Z,7.00
2022-11-07T17:09:52.302Z,7.00
2022-11-07T17:12:22.695Z,7.00
2022-11-07T17:14:49.934Z,7.10
2022-11-07T17:17:17.860Z,7.10
2022-11-07T17:19:44.750Z,7.10
2022-11-07T17:22:16.194Z,7.10
2022-11-07T17:24:43.500Z,7.10
2022-11-07T17:27:21.124Z,7.20
2022-11-07T17:29:48.165Z,7.20
2022-11-07T17:32:15.229Z,7.10
2022-11-07T17:34:45.500Z,7.10
2022-11-07T17:37:15.983Z,7.10
2022-11-07T17:39:48.778Z,7.20
2022-11-07T17:42:22.961Z,7.20
2022-11-07T17:44:59.565Z,7.20
2022-11-07T17:47:30.547Z,7.20
2022-11-07T17:49:58.240Z,7.30
2022-11-07T17:52:25.189Z,7.30
2022-11-07T17:54:53.952Z,7.30
2022-11-07T17:57:21.334Z,7.30
2022-11-07T17:59:50.290Z,7.30
2022-11-07T18:02:19.829Z,7.30
2022-11-07T18:04:47.530Z,7.40
2022-11-07T18:07:14.590Z,7.40
2022-11-07T18:09:41.605Z,7.40
2022-11-07T18:12:08.997Z,7.40
2022-11-07T18:14:36.263Z,7.40
2022-11-07T18:17:03.243Z,7.40
2022-11-07T18:19:30.234Z,7.50
2022-11-07T18:21:57.160Z,7.50
2022-11-07T18:24:24.395Z,7.50
2022-11-07T18:26:52.154Z,7.50
2022-11-07T18:29:19.518Z,7.50
2022-11-07T18:31:50.013Z,7.50
2022-11-07T18:34:17.237Z,7.50
2022-11-07T18:36:44.856Z,7.60
2022-11-07T18:39:17.124Z,7.60
2022-11-07T18:41:44.187Z,7.60
2022-11-07T18:44:12.013Z,7.60
2022-11-07T18:46:39.529Z,7.50
2022-11-07T18:49:07.043Z,7.50
2022-11-07T18:51:34.442Z,7.50
2022-11-07T18:54:02.809Z,7.50
2022-11-07T18:56:30.088Z,7.40
2022-11-07T18:58:57.310Z,7.50
2022-11-07T19:01:28.062Z,7.50
2022-11-07T19:03:56.119Z,7.50
2022-11-07T19:06:23.831Z,7.50
2022-11-07T19:08:53.274Z,7.50
2022-11-07T19:11:25.564Z,7.50
2022-11-07T19:13:52.974Z,7.60
2022-11-07T19:16:21.069Z,7.60
2022-11-07T19:18:49.763Z,7.60
2022-11-07T19:21:19.696Z,7.60
2022-11-07T19:23:47.273Z,7.60
2022-11-07T19:26:14.187Z,7.70
2022-11-07T19:28:41.328Z,7.70
2022-11-07T19:31:10.869Z,7.70
2022-11-07T19:33:37.839Z,7.70
2022-11-07T19:36:06.185Z,7.70
2022-11-07T19:38:33.980Z,7.80
2022-11-07T19:41:04.759Z,7.80
2022-11-07T19:43:32.302Z,7.80
2022-11-07T19:45:59.320Z,7.80
2022-11-07T19:48:26.325Z,7.90
2022-11-07T19:50:53.369Z,7.90
2022-11-07T19:53:21.621Z,7.90
2022-11-07T19:55:48.698Z,7.90
2022-11-07T19:58:16.146Z,7.90
2022-11-07T20:00:43.124Z,7.90
2022-11-07T20:03:10.500Z,7.90
2022-11-07T20:05:40.567Z,7.90
2022-11-07T20:08:07.489Z,7.90
2022-11-07T20:10:34.468Z,7.90
2022-11-07T20:13:01.382Z,7.90
2022-11-07T20:15:28.397Z,7.90
2022-11-07T20:17:55.339Z,7.90
2022-11-07T20:20:22.234Z,7.90
2022-11-07T20:22:49.297Z,7.90
2022-11-07T20:25:16.288Z,7.90
2022-11-07T20:27:43.559Z,7.90
2022-11-07T20:30:10.879Z,8.00
2022-11-07T20:32:39.321Z,7.90
2022-11-07T20:35:07.133Z,7.90
2022-11-07T20:37:35.247Z,7.90
2022-11-07T20:40:02.171Z,7.90
2022-11-07T20:42:29.359Z,8.00
2022-11-07T20:44:56.314Z,8.00
2022-11-07T20:47:23.777Z,8.00
2022-11-07T20:49:50.657Z,8.00
2022-11-07T20:52:17.587Z,8.00
2022-11-07T20:54:44.585Z,8.00
2022-11-07T20:57:11.491Z,8.00
2022-11-07T20:59:41.348Z,8.00
2022-11-07T21:02:11.857Z,8.00
2022-11-07T21:04:56.328Z,8.00
2022-11-07T21:07:25.965Z,8.00
2022-11-07T21:09:52.843Z,8.10
2022-11-07T21:12:19.931Z,8.10
2022-11-07T21:14:46.850Z,8.10
2022-11-07T21:17:16.178Z,8.10
2022-11-07T21:19:45.586Z,8.10
2022-11-07T21:22:12.584Z,8.10
2022-11-07T21:24:39.592Z,8.10
2022-11-07T21:27:06.781Z,8.10
2022-11-07T21:29:33.755Z,8.10
2022-11-07T21:32:01.228Z,8.10
2022-11-07T21:34:30.628Z,8.10
2022-11-07T21:36:57.543Z,8.20
2022-11-07T21:39:25.299Z,8.10
2022-11-07T21:41:52.232Z,8.20
2022-11-07T21:44:19.315Z,8.20
2022-11-07T21:46:46.226Z,8.20
2022-11-07T21:49:13.301Z,8.20
2022-11-07T21:51:40.400Z,8.20
2022-11-07T21:54:07.510Z,8.20
2022-11-07T21:56:36.427Z,8.20
2022-11-07T21:59:07.936Z,8.20
2022-11-07T22:01:36.261Z,8.30
2022-11-07T22:04:07.644Z,8.20
2022-11-07T22:06:36.448Z,8.30
2022-11-07T22:09:04.159Z,8.30
2022-11-07T22:11:31.419Z,8.30
2022-11-07T22:13:58.571Z,8.40
2022-11-07T22:16:25.721Z,8.40
2022-11-07T22:18:53.446Z,8.40
2022-11-07T22:21:21.564Z,8.40
2022-11-07T22:23:48.552Z,8.40
2022-11-07T22:26:17.360Z,8.40
2022-11-07T22:28:46.213Z,8.40
2022-11-07T22:31:14.902Z,8.50
2022-11-07T22:33:41.962Z,8.50
2022-11-07T22:36:10.127Z,8.50
2022-11-07T22:38:37.608Z,8.50
2022-11-07T22:41:08.823Z,8.50
2022-11-07T22:43:35.826Z,8.60
2022-11-07T22:46:03.972Z,8.60
2022-11-07T22:48:31.435Z,8.60
2022-11-07T22:51:18.333Z,8.60
2022-11-07T22:53:45.254Z,8.60
2022-11-07T22:56:16.301Z,8.60
2022-11-07T22:58:43.549Z,8.60
2022-11-07T23:01:16.884Z,8.50
2022-11-07T23:03:43.954Z,8.50
2022-11-07T23:06:11.013Z,8.50
2022-11-07T23:08:38.476Z,8.50
2022-11-07T23:11:43.464Z,8.50
2022-11-07T23:14:00.598Z,8.50
2022-11-07T23:16:32.554Z,8.50
2022-11-07T23:19:01.166Z,8.50
2022-11-07T23:21:28.105Z,8.50
2022-11-07T23:23:56.053Z,8.50
2022-11-07T23:26:23.396Z,8.50
2022-11-07T23:28:50.737Z,8.50
2022-11-07T23:31:18.436Z,8.50
2022-11-07T23:33:45.428Z,8.50
2022-11-07T23:36:16.768Z,8.50
2022-11-07T23:38:44.064Z,8.50
2022-11-07T23:41:12.288Z,8.50
2022-11-07T23:43:39.633Z,8.50
2022-11-07T23:46:25.316Z,8.50
2022-11-07T23:49:14.582Z,8.60
2022-11-07T23:51:42.215Z,8.60
2022-11-07T23:54:27.741Z,8.60
2022-11-07T23:56:54.789Z,8.60
2022-11-07T23:59:40.133Z,8.60
